sensor_id;sensor_type;location;lat;lon;timestamp;pressure;altitude;pressure_sealevel;temperature;humidity
6506;BME280;3286;49.858;8.768;2023-03-18T00:01:05;98671.78;;;14.80;37.67
6506;BME280;3286;49.858;8.768;2023-03-18T00:03:35;98677.09;;;14.80;37.05
6506;BME280;3286;49.858;8.768;2023-03-18T00:06:04;98669.00;;;14.66;37.32
6506;BME280;3286;49.858;8.768;2023-03-18T00:08:31;98674.78;;;15.20;36.72
6506;BME280;3286;49.858;8.768;2023-03-18T00:10:58;98666.38;;;15.45;36.37
6506;BME280;3286;49.858;8.768;2023-03-18T00:13:26;98678.09;;;15.57;35.88
6506;BME280;3286;49.858;8.768;2023-03-18T00:16:00;98676.78;;;14.89;36.28
6506;BME280;3286;49.858;8.768;2023-03-18T00:18:27;98682.94;;;14.90;36.39
6506;BME280;3286;49.858;8.768;2023-03-18T00:20:53;98675.22;;;14.95;36.16
6506;BME280;3286;49.858;8.768;2023-03-18T00:23:24;98683.44;;;15.29;35.93
6506;BME280;3286;49.858;8.768;2023-03-18T00:25:51;98685.28;;;15.57;35.15
6506;BME280;3286;49.858;8.768;2023-03-18T00:28:19;98686.38;;;15.69;35.03
6506;BME280;3286;49.858;8.768;2023-03-18T00:30:46;98689.31;;;15.17;36.25
6506;BME280;3286;49.858;8.768;2023-03-18T00:33:14;98690.25;;;15.10;36.01
6506;BME280;3286;49.858;8.768;2023-03-18T00:35:42;98693.25;;;15.28;35.69
6506;BME280;3286;49.858;8.768;2023-03-18T00:38:10;98693.03;;;15.52;35.71
6506;BME280;3286;49.858;8.768;2023-03-18T00:40:47;98692.59;;;15.19;35.90
6506;BME280;3286;49.858;8.768;2023-03-18T00:43:26;98699.09;;;14.88;36.46
6506;BME280;3286;49.858;8.768;2023-03-18T00:45:59;98697.28;;;15.46;36.23
6506;BME280;3286;49.858;8.768;2023-03-18T00:48:25;98700.59;;;14.98;36.52
6506;BME280;3286;49.858;8.768;2023-03-18T00:50:52;98709.31;;;14.33;38.48
6506;BME280;3286;49.858;8.768;2023-03-18T00:53:19;98703.38;;;14.89;37.28
6506;BME280;3286;49.858;8.768;2023-03-18T00:55:49;98704.66;;;14.94;36.84
6506;BME280;3286;49.858;8.768;2023-03-18T00:58:16;98710.00;;;14.57;37.98
6506;BME280;3286;49.858;8.768;2023-03-18T01:00:43;98712.00;;;15.13;36.51
6506;BME280;3286;49.858;8.768;2023-03-18T01:03:11;98704.97;;;15.05;37.22
6506;BME280;3286;49.858;8.768;2023-03-18T01:05:41;98705.50;;;15.51;36.17
6506;BME280;3286;49.858;8.768;2023-03-18T01:08:08;98704.56;;;15.09;36.89
6506;BME280;3286;49.858;8.768;2023-03-18T01:10:34;98705.28;;;14.96;37.21
6506;BME280;3286;49.858;8.768;2023-03-18T01:13:02;98715.59;;;15.56;36.13
6506;BME280;3286;49.858;8.768;2023-03-18T01:15:29;98707.09;;;15.45;36.60
6506;BME280;3286;49.858;8.768;2023-03-18T01:17:56;98712.97;;;14.47;38.38
6506;BME280;3286;49.858;8.768;2023-03-18T01:20:23;98715.91;;;15.17;37.58
6506;BME280;3286;49.858;8.768;2023-03-18T01:22:50;98711.47;;;15.03;37.44
6506;BME280;3286;49.858;8.768;2023-03-18T01:25:17;98713.41;;;15.38;37.43
6506;BME280;3286;49.858;8.768;2023-03-18T01:27:43;98714.44;;;15.15;37.64
6506;BME280;3286;49.858;8.768;2023-03-18T01:30:13;98704.91;;;15.27;37.24
6506;BME280;3286;49.858;8.768;2023-03-18T01:32:39;98703.38;;;14.89;38.24
6506;BME280;3286;49.858;8.768;2023-03-18T01:35:08;98708.00;;;15.02;38.18
6506;BME280;3286;49.858;8.768;2023-03-18T01:37:36;98697.84;;;14.69;38.53
6506;BME280;3286;49.858;8.768;2023-03-18T01:40:05;98711.72;;;14.28;39.86
6506;BME280;3286;49.858;8.768;2023-03-18T01:42:33;98709.72;;;14.00;40.48
6506;BME280;3286;49.858;8.768;2023-03-18T01:45:17;98711.59;;;14.36;39.94
6506;BME280;3286;49.858;8.768;2023-03-18T01:47:46;98717.03;;;12.76;43.22
6506;BME280;3286;49.858;8.768;2023-03-18T01:50:15;98705.91;;;14.02;41.09
6506;BME280;3286;49.858;8.768;2023-03-18T01:52:44;98707.63;;;13.50;41.78
6506;BME280;3286;49.858;8.768;2023-03-18T01:55:13;98717.38;;;13.73;41.39
6506;BME280;3286;49.858;8.768;2023-03-18T01:57:42;98714.47;;;14.34;40.24
6506;BME280;3286;49.858;8.768;2023-03-18T02:00:10;98715.47;;;14.33;40.13
6506;BME280;3286;49.858;8.768;2023-03-18T02:02:39;98717.41;;;14.61;39.65
6506;BME280;3286;49.858;8.768;2023-03-18T02:05:08;98717.09;;;13.68;41.54
6506;BME280;3286;49.858;8.768;2023-03-18T02:07:40;98712.91;;;14.62;39.57
6506;BME280;3286;49.858;8.768;2023-03-18T02:10:10;98711.63;;;15.23;38.61
6506;BME280;3286;49.858;8.768;2023-03-18T02:12:40;98704.47;;;14.58;39.94
6506;BME280;3286;49.858;8.768;2023-03-18T02:15:13;98705.16;;;14.82;39.21
6506;BME280;3286;49.858;8.768;2023-03-18T02:17:52;98710.16;;;14.70;39.79
6506;BME280;3286;49.858;8.768;2023-03-18T02:20:30;98703.81;;;14.49;40.72
6506;BME280;3286;49.858;8.768;2023-03-18T02:23:06;98703.53;;;14.66;40.31
6506;BME280;3286;49.858;8.768;2023-03-18T02:25:40;98708.53;;;14.54;40.62
6506;BME280;3286;49.858;8.768;2023-03-18T02:28:12;98707.81;;;14.45;40.97
6506;BME280;3286;49.858;8.768;2023-03-18T02:30:42;98699.22;;;14.80;40.68
6506;BME280;3286;49.858;8.768;2023-03-18T02:33:13;98700.69;;;14.68;41.31
6506;BME280;3286;49.858;8.768;2023-03-18T02:35:41;98702.31;;;14.84;40.60
6506;BME280;3286;49.858;8.768;2023-03-18T02:38:10;98702.69;;;14.81;40.79
6506;BME280;3286;49.858;8.768;2023-03-18T02:40:38;98713.28;;;14.74;40.68
6506;BME280;3286;49.858;8.768;2023-03-18T02:43:22;98715.69;;;14.54;41.15
6506;BME280;3286;49.858;8.768;2023-03-18T02:46:04;98712.69;;;14.78;40.44
6506;BME280;3286;49.858;8.768;2023-03-18T02:48:38;98714.09;;;14.59;40.82
6506;BME280;3286;49.858;8.768;2023-03-18T02:51:05;98719.97;;;14.70;40.50
6506;BME280;3286;49.858;8.768;2023-03-18T02:53:33;98716.22;;;14.64;40.63
6506;BME280;3286;49.858;8.768;2023-03-18T02:56:00;98724.59;;;14.68;40.63
6506;BME280;3286;49.858;8.768;2023-03-18T02:58:28;98730.75;;;14.68;41.12
6506;BME280;3286;49.858;8.768;2023-03-18T03:00:55;98740.53;;;14.83;41.76
6506;BME280;3286;49.858;8.768;2023-03-18T03:03:22;98730.13;;;14.66;42.91
6506;BME280;3286;49.858;8.768;2023-03-18T03:05:48;98732.03;;;14.51;43.19
6506;BME280;3286;49.858;8.768;2023-03-18T03:08:15;98725.97;;;14.42;43.63
6506;BME280;3286;49.858;8.768;2023-03-18T03:10:42;98725.78;;;14.43;43.95
6506;BME280;3286;49.858;8.768;2023-03-18T03:13:09;98737.78;;;14.39;44.42
6506;BME280;3286;49.858;8.768;2023-03-18T03:15:37;98739.06;;;14.43;44.67
6506;BME280;3286;49.858;8.768;2023-03-18T03:18:05;98740.03;;;14.36;44.73
6506;BME280;3286;49.858;8.768;2023-03-18T03:20:33;98741.16;;;14.11;44.69
6506;BME280;3286;49.858;8.768;2023-03-18T03:23:02;98747.28;;;14.27;44.46
6506;BME280;3286;49.858;8.768;2023-03-18T03:25:29;98736.91;;;14.32;45.10
6506;BME280;3286;49.858;8.768;2023-03-18T03:27:57;98731.16;;;14.13;45.54
6506;BME280;3286;49.858;8.768;2023-03-18T03:30:24;98727.50;;;14.14;46.01
6506;BME280;3286;49.858;8.768;2023-03-18T03:32:53;98736.03;;;13.95;46.32
6506;BME280;3286;49.858;8.768;2023-03-18T03:35:20;98726.41;;;14.09;44.85
6506;BME280;3286;49.858;8.768;2023-03-18T03:37:48;98744.97;;;13.49;45.77
6506;BME280;3286;49.858;8.768;2023-03-18T03:40:16;98751.22;;;11.66;50.84
6506;BME280;3286;49.858;8.768;2023-03-18T03:42:45;98752.59;;;12.19;49.00
6506;BME280;3286;49.858;8.768;2023-03-18T03:45:13;98751.53;;;13.14;47.15
6506;BME280;3286;49.858;8.768;2023-03-18T03:47:41;98742.25;;;13.72;45.18
6506;BME280;3286;49.858;8.768;2023-03-18T03:50:10;98747.81;;;13.62;46.86
6506;BME280;3286;49.858;8.768;2023-03-18T03:52:37;98743.97;;;13.80;46.76
6506;BME280;3286;49.858;8.768;2023-03-18T03:55:05;98745.91;;;13.71;47.60
6506;BME280;3286;49.858;8.768;2023-03-18T03:57:33;98751.94;;;13.80;47.63
6506;BME280;3286;49.858;8.768;2023-03-18T04:00:01;98761.34;;;13.29;49.26
6506;BME280;3286;49.858;8.768;2023-03-18T04:02:29;98760.66;;;14.03;47.81
6506;BME280;3286;49.858;8.768;2023-03-18T04:04:58;98752.91;;;13.10;50.55
6506;BME280;3286;49.858;8.768;2023-03-18T04:07:26;98751.66;;;13.36;50.70
6506;BME280;3286;49.858;8.768;2023-03-18T04:09:53;98760.25;;;13.46;50.20
6506;BME280;3286;49.858;8.768;2023-03-18T04:12:20;98755.44;;;13.42;50.14
6506;BME280;3286;49.858;8.768;2023-03-18T04:14:46;98771.47;;;13.10;50.37
6506;BME280;3286;49.858;8.768;2023-03-18T04:17:14;98766.44;;;13.15;49.74
6506;BME280;3286;49.858;8.768;2023-03-18T04:19:41;98768.31;;;13.07;49.20
6506;BME280;3286;49.858;8.768;2023-03-18T04:22:08;98761.88;;;13.24;50.01
6506;BME280;3286;49.858;8.768;2023-03-18T04:24:36;98765.00;;;13.28;51.11
6506;BME280;3286;49.858;8.768;2023-03-18T04:27:03;98756.34;;;13.34;50.22
6506;BME280;3286;49.858;8.768;2023-03-18T04:29:30;98752.50;;;13.37;50.78
6506;BME280;3286;49.858;8.768;2023-03-18T04:31:56;98744.00;;;13.41;50.80
6506;BME280;3286;49.858;8.768;2023-03-18T04:34:23;98750.63;;;13.22;50.73
6506;BME280;3286;49.858;8.768;2023-03-18T04:36:50;98755.34;;;12.88;51.71
6506;BME280;3286;49.858;8.768;2023-03-18T04:39:16;98757.19;;;12.88;51.63
6506;BME280;3286;49.858;8.768;2023-03-18T04:41:45;98760.25;;;13.00;50.97
6506;BME280;3286;49.858;8.768;2023-03-18T04:44:11;98754.72;;;13.10;50.37
6506;BME280;3286;49.858;8.768;2023-03-18T04:46:38;98763.38;;;13.27;49.96
6506;BME280;3286;49.858;8.768;2023-03-18T04:49:05;98767.13;;;13.32;50.25
6506;BME280;3286;49.858;8.768;2023-03-18T04:51:32;98765.44;;;13.16;51.16
6506;BME280;3286;49.858;8.768;2023-03-18T04:53:58;98764.88;;;13.06;51.39
6506;BME280;3286;49.858;8.768;2023-03-18T04:56:25;98765.75;;;12.98;51.27
6506;BME280;3286;49.858;8.768;2023-03-18T04:58:53;98769.09;;;12.92;51.45
6506;BME280;3286;49.858;8.768;2023-03-18T05:01:19;98766.63;;;12.90;51.22
6506;BME280;3286;49.858;8.768;2023-03-18T05:03:46;98762.59;;;12.40;52.17
6506;BME280;3286;49.858;8.768;2023-03-18T05:06:19;98771.81;;;12.52;51.97
6506;BME280;3286;49.858;8.768;2023-03-18T05:08:47;98762.25;;;12.74;51.58
6506;BME280;3286;49.858;8.768;2023-03-18T05:11:14;98757.44;;;12.46;51.62
6506;BME280;3286;49.858;8.768;2023-03-18T05:13:40;98757.00;;;12.66;50.71
6506;BME280;3286;49.858;8.768;2023-03-18T05:16:08;98754.84;;;12.70;50.39
6506;BME280;3286;49.858;8.768;2023-03-18T05:18:36;98748.97;;;12.51;50.90
6506;BME280;3286;49.858;8.768;2023-03-18T05:21:03;98759.03;;;12.24;51.90
6506;BME280;3286;49.858;8.768;2023-03-18T05:23:32;98750.88;;;12.34;51.17
6506;BME280;3286;49.858;8.768;2023-03-18T05:25:59;98754.22;;;12.28;50.54
6506;BME280;3286;49.858;8.768;2023-03-18T05:28:26;98764.09;;;11.78;52.14
6506;BME280;3286;49.858;8.768;2023-03-18T05:30:52;98772.38;;;10.75;56.57
6506;BME280;3286;49.858;8.768;2023-03-18T05:33:20;98775.56;;;11.37;54.96
6506;BME280;3286;49.858;8.768;2023-03-18T05:35:47;98772.06;;;11.69;54.38
6506;BME280;3286;49.858;8.768;2023-03-18T05:38:14;98767.88;;;12.08;53.38
6506;BME280;3286;49.858;8.768;2023-03-18T05:40:41;98778.59;;;12.15;52.98
6506;BME280;3286;49.858;8.768;2023-03-18T05:43:07;98777.59;;;12.16;52.59
6506;BME280;3286;49.858;8.768;2023-03-18T05:45:34;98781.06;;;12.16;52.35
6506;BME280;3286;49.858;8.768;2023-03-18T05:48:01;98776.03;;;12.30;51.75
6506;BME280;3286;49.858;8.768;2023-03-18T05:50:30;98781.53;;;12.20;51.95
6506;BME280;3286;49.858;8.768;2023-03-18T05:52:57;98783.84;;;12.23;51.91
6506;BME280;3286;49.858;8.768;2023-03-18T05:55:25;98779.16;;;12.42;51.53
6506;BME280;3286;49.858;8.768;2023-03-18T05:57:52;98784.06;;;12.13;52.01
6506;BME280;3286;49.858;8.768;2023-03-18T06:00:19;98777.97;;;12.05;53.04
6506;BME280;3286;49.858;8.768;2023-03-18T06:02:46;98786.59;;;12.38;51.78
6506;BME280;3286;49.858;8.768;2023-03-18T06:05:14;98790.88;;;11.83;53.38
6506;BME280;3286;49.858;8.768;2023-03-18T06:07:42;98790.38;;;12.04;53.37
6506;BME280;3286;49.858;8.768;2023-03-18T06:10:10;98790.88;;;12.48;52.17
6506;BME280;3286;49.858;8.768;2023-03-18T06:12:37;98788.72;;;12.11;53.44
6506;BME280;3286;49.858;8.768;2023-03-18T06:15:06;98788.03;;;12.17;53.19
6506;BME280;3286;49.858;8.768;2023-03-18T06:17:33;98792.09;;;12.37;52.79
6506;BME280;3286;49.858;8.768;2023-03-18T06:20:00;98787.78;;;12.36;53.13
6506;BME280;3286;49.858;8.768;2023-03-18T06:22:27;98786.84;;;12.60;51.77
6506;BME280;3286;49.858;8.768;2023-03-18T06:24:55;98784.44;;;12.42;51.79
6506;BME280;3286;49.858;8.768;2023-03-18T06:27:21;98788.59;;;12.36;52.37
6506;BME280;3286;49.858;8.768;2023-03-18T06:29:48;98803.38;;;12.30;52.58
6506;BME280;3286;49.858;8.768;2023-03-18T06:32:15;98795.38;;;12.39;51.51
6506;BME280;3286;49.858;8.768;2023-03-18T06:34:42;98800.03;;;12.37;52.03
6506;BME280;3286;49.858;8.768;2023-03-18T06:37:10;98802.28;;;12.88;51.14
6506;BME280;3286;49.858;8.768;2023-03-18T06:39:36;98808.09;;;12.52;52.68
6506;BME280;3286;49.858;8.768;2023-03-18T06:42:04;98803.13;;;12.80;52.13
6506;BME280;3286;49.858;8.768;2023-03-18T06:44:31;98810.78;;;12.35;52.93
6506;BME280;3286;49.858;8.768;2023-03-18T06:46:58;98814.03;;;12.54;51.68
6506;BME280;3286;49.858;8.768;2023-03-18T06:49:25;98804.66;;;12.74;50.57
6506;BME280;3286;49.858;8.768;2023-03-18T06:51:52;98816.84;;;12.84;50.38
6506;BME280;3286;49.858;8.768;2023-03-18T06:54:19;98812.25;;;12.78;51.55
6506;BME280;3286;49.858;8.768;2023-03-18T06:56:45;98813.88;;;12.47;52.04
6506;BME280;3286;49.858;8.768;2023-03-18T06:59:13;98815.94;;;13.00;51.06
6506;BME280;3286;49.858;8.768;2023-03-18T07:01:40;98817.28;;;12.96;51.35
6506;BME280;3286;49.858;8.768;2023-03-18T07:04:08;98807.75;;;13.10;51.03
6506;BME280;3286;49.858;8.768;2023-03-18T07:06:36;98812.63;;;13.21;50.13
6506;BME280;3286;49.858;8.768;2023-03-18T07:09:03;98816.69;;;13.09;50.89
6506;BME280;3286;49.858;8.768;2023-03-18T07:11:30;98825.22;;;13.27;50.51
6506;BME280;3286;49.858;8.768;2023-03-18T07:13:57;98827.25;;;13.49;49.80
6506;BME280;3286;49.858;8.768;2023-03-18T07:16:25;98828.81;;;13.35;50.45
6506;BME280;3286;49.858;8.768;2023-03-18T07:18:52;98825.34;;;13.72;49.06
6506;BME280;3286;49.858;8.768;2023-03-18T07:21:18;98823.41;;;14.04;48.83
6506;BME280;3286;49.858;8.768;2023-03-18T07:23:45;98826.06;;;14.04;48.21
6506;BME280;3286;49.858;8.768;2023-03-18T07:26:14;98828.16;;;14.24;47.81
6506;BME280;3286;49.858;8.768;2023-03-18T07:28:41;98827.88;;;14.34;46.55
6506;BME280;3286;49.858;8.768;2023-03-18T07:31:07;98826.38;;;14.61;45.03
6506;BME280;3286;49.858;8.768;2023-03-18T07:33:35;98826.59;;;14.75;46.04
6506;BME280;3286;49.858;8.768;2023-03-18T07:36:02;98828.75;;;15.08;44.42
6506;BME280;3286;49.858;8.768;2023-03-18T07:38:29;98828.63;;;14.73;44.07
6506;BME280;3286;49.858;8.768;2023-03-18T07:40:56;98834.75;;;14.73;44.28
6506;BME280;3286;49.858;8.768;2023-03-18T07:43:22;98831.53;;;14.63;43.92
6506;BME280;3286;49.858;8.768;2023-03-18T07:45:49;98842.53;;;14.60;42.78
6506;BME280;3286;49.858;8.768;2023-03-18T07:48:16;98827.56;;;15.11;41.58
6506;BME280;3286;49.858;8.768;2023-03-18T07:50:44;98828.28;;;15.19;39.27
6506;BME280;3286;49.858;8.768;2023-03-18T07:53:10;98826.47;;;15.70;38.75
6506;BME280;3286;49.858;8.768;2023-03-18T07:55:37;98828.03;;;16.50;37.76
6506;BME280;3286;49.858;8.768;2023-03-18T07:58:05;98821.84;;;16.43;37.63
6506;BME280;3286;49.858;8.768;2023-03-18T08:00:31;98826.38;;;16.49;36.80
6506;BME280;3286;49.858;8.768;2023-03-18T08:02:58;98833.06;;;16.80;36.70
6506;BME280;3286;49.858;8.768;2023-03-18T08:05:25;98835.13;;;16.36;36.17
6506;BME280;3286;49.858;8.768;2023-03-18T08:07:53;98828.22;;;17.04;34.49
6506;BME280;3286;49.858;8.768;2023-03-18T08:10:20;98834.25;;;16.64;34.52
6506;BME280;3286;49.858;8.768;2023-03-18T08:12:46;98832.59;;;16.63;35.49
6506;BME280;3286;49.858;8.768;2023-03-18T08:15:13;98836.28;;;16.69;34.93
6506;BME280;3286;49.858;8.768;2023-03-18T08:17:40;98833.03;;;16.31;35.09
6506;BME280;3286;49.858;8.768;2023-03-18T08:20:08;98843.97;;;16.43;34.37
6506;BME280;3286;49.858;8.768;2023-03-18T08:22:36;98839.91;;;16.96;34.03
6506;BME280;3286;49.858;8.768;2023-03-18T08:25:05;98834.66;;;17.30;32.90
6506;BME280;3286;49.858;8.768;2023-03-18T08:27:32;98834.44;;;17.31;33.32
6506;BME280;3286;49.858;8.768;2023-03-18T08:29:59;98830.31;;;17.15;33.50
6506;BME280;3286;49.858;8.768;2023-03-18T08:32:26;98835.59;;;16.95;33.51
6506;BME280;3286;49.858;8.768;2023-03-18T08:34:53;98833.44;;;17.46;32.91
6506;BME280;3286;49.858;8.768;2023-03-18T08:37:19;98838.00;;;16.90;33.73
6506;BME280;3286;49.858;8.768;2023-03-18T08:39:46;98833.22;;;17.88;32.63
6506;BME280;3286;49.858;8.768;2023-03-18T08:42:14;98834.69;;;15.97;36.35
6506;BME280;3286;49.858;8.768;2023-03-18T08:44:41;98838.72;;;17.05;34.53
6506;BME280;3286;49.858;8.768;2023-03-18T08:47:08;98842.56;;;16.96;34.28
6506;BME280;3286;49.858;8.768;2023-03-18T08:49:35;98846.72;;;17.12;33.81
6506;BME280;3286;49.858;8.768;2023-03-18T08:52:03;98841.44;;;17.39;33.64
6506;BME280;3286;49.858;8.768;2023-03-18T08:54:31;98839.38;;;17.28;33.11
6506;BME280;3286;49.858;8.768;2023-03-18T08:56:58;98854.38;;;15.31;36.65
6506;BME280;3286;49.858;8.768;2023-03-18T08:59:26;98845.94;;;16.70;34.83
6506;BME280;3286;49.858;8.768;2023-03-18T09:01:53;98844.53;;;16.32;33.97
6506;BME280;3286;49.858;8.768;2023-03-18T09:04:19;98852.53;;;16.32;34.53
6506;BME280;3286;49.858;8.768;2023-03-18T09:06:47;98859.38;;;15.62;35.68
6506;BME280;3286;49.858;8.768;2023-03-18T09:09:14;98857.69;;;15.11;36.61
6506;BME280;3286;49.858;8.768;2023-03-18T09:11:41;98855.75;;;15.48;35.44
6506;BME280;3286;49.858;8.768;2023-03-18T09:14:09;98857.59;;;15.91;36.05
6506;BME280;3286;49.858;8.768;2023-03-18T09:16:39;98853.69;;;17.13;33.03
6506;BME280;3286;49.858;8.768;2023-03-18T09:19:06;98852.53;;;18.17;32.56
6506;BME280;3286;49.858;8.768;2023-03-18T09:21:32;98849.25;;;17.94;33.34
6506;BME280;3286;49.858;8.768;2023-03-18T09:24:00;98855.63;;;18.07;32.75
6506;BME280;3286;49.858;8.768;2023-03-18T09:26:26;98848.06;;;18.70;32.03
6506;BME280;3286;49.858;8.768;2023-03-18T09:28:53;98853.31;;;18.90;31.49
6506;BME280;3286;49.858;8.768;2023-03-18T09:31:20;98843.97;;;18.60;31.92
6506;BME280;3286;49.858;8.768;2023-03-18T09:33:48;98854.19;;;18.83;31.46
6506;BME280;3286;49.858;8.768;2023-03-18T09:36:14;98847.31;;;18.49;32.14
6506;BME280;3286;49.858;8.768;2023-03-18T09:38:42;98840.63;;;19.17;31.03
6506;BME280;3286;49.858;8.768;2023-03-18T09:41:21;98833.78;;;19.28;30.97
6506;BME280;3286;49.858;8.768;2023-03-18T09:43:56;98835.06;;;19.76;29.52
6506;BME280;3286;49.858;8.768;2023-03-18T09:46:32;98825.44;;;19.68;30.70
6506;BME280;3286;49.858;8.768;2023-03-18T09:52:15;98835.47;;;17.50;34.08
6506;BME280;3286;49.858;8.768;2023-03-18T09:54:48;98831.88;;;19.03;32.56
6506;BME280;3286;49.858;8.768;2023-03-18T09:57:20;98826.63;;;19.73;31.76
6506;BME280;3286;49.858;8.768;2023-03-18T09:59:51;98825.56;;;20.24;31.62
6506;BME280;3286;49.858;8.768;2023-03-18T10:02:24;98820.19;;;20.80;30.34
6506;BME280;3286;49.858;8.768;2023-03-18T10:04:55;98830.44;;;21.02;30.03
6506;BME280;3286;49.858;8.768;2023-03-18T10:07:28;98829.13;;;20.74;30.53
6506;BME280;3286;49.858;8.768;2023-03-18T10:10:00;98826.47;;;21.05;29.96
6506;BME280;3286;49.858;8.768;2023-03-18T10:12:31;98826.81;;;21.51;28.58
6506;BME280;3286;49.858;8.768;2023-03-18T10:15:05;98830.50;;;21.92;27.59
6506;BME280;3286;49.858;8.768;2023-03-18T10:17:38;98828.63;;;21.26;28.72
6506;BME280;3286;49.858;8.768;2023-03-18T10:20:15;98824.25;;;21.56;28.98
6506;BME280;3286;49.858;8.768;2023-03-18T10:22:57;98824.53;;;21.78;27.82
6506;BME280;3286;49.858;8.768;2023-03-18T10:25:33;98820.25;;;21.35;28.68
6506;BME280;3286;49.858;8.768;2023-03-18T10:28:35;98820.75;;;21.13;28.30
6506;BME280;3286;49.858;8.768;2023-03-18T10:31:15;98815.56;;;21.30;28.06
6506;BME280;3286;49.858;8.768;2023-03-18T10:33:45;98818.47;;;21.71;28.20
6506;BME280;3286;49.858;8.768;2023-03-18T10:36:18;98817.25;;;22.26;28.09
6506;BME280;3286;49.858;8.768;2023-03-18T10:38:47;98816.31;;;22.74;27.51
6506;BME280;3286;49.858;8.768;2023-03-18T10:41:18;98812.84;;;22.73;27.21
6506;BME280;3286;49.858;8.768;2023-03-18T10:43:48;98816.16;;;21.44;28.23
6506;BME280;3286;49.858;8.768;2023-03-18T10:46:18;98818.44;;;21.95;28.32
6506;BME280;3286;49.858;8.768;2023-03-18T10:48:48;98814.91;;;22.18;28.80
6506;BME280;3286;49.858;8.768;2023-03-18T10:51:23;98809.50;;;22.30;28.60
6506;BME280;3286;49.858;8.768;2023-03-18T10:53:57;98800.38;;;22.43;28.25
6506;BME280;3286;49.858;8.768;2023-03-18T10:56:28;98802.69;;;22.39;28.09
6506;BME280;3286;49.858;8.768;2023-03-18T10:58:55;98809.72;;;21.33;29.33
6506;BME280;3286;49.858;8.768;2023-03-18T11:01:24;98811.38;;;20.17;30.74
6506;BME280;3286;49.858;8.768;2023-03-18T11:03:58;98808.63;;;20.61;29.22
6506;BME280;3286;49.858;8.768;2023-03-18T11:06:43;98811.91;;;20.82;29.68
6506;BME280;3286;49.858;8.768;2023-03-18T11:09:18;98797.31;;;22.51;28.36
6506;BME280;3286;49.858;8.768;2023-03-18T11:11:47;98799.66;;;21.83;29.05
6506;BME280;3286;49.858;8.768;2023-03-18T11:14:15;98789.03;;;22.53;27.75
6506;BME280;3286;49.858;8.768;2023-03-18T11:16:46;98795.91;;;22.90;27.14
6506;BME280;3286;49.858;8.768;2023-03-18T11:19:28;98797.69;;;23.01;27.18
6506;BME280;3286;49.858;8.768;2023-03-18T11:22:04;98802.25;;;22.83;27.01
6506;BME280;3286;49.858;8.768;2023-03-18T11:24:31;98794.25;;;22.89;27.69
6506;BME280;3286;49.858;8.768;2023-03-18T11:27:20;98795.59;;;23.49;27.21
6506;BME280;3286;49.858;8.768;2023-03-18T11:29:49;98799.91;;;23.33;27.40
6506;BME280;3286;49.858;8.768;2023-03-18T11:32:23;98803.16;;;23.69;26.45
6506;BME280;3286;49.858;8.768;2023-03-18T11:34:53;98804.56;;;23.38;26.31
6506;BME280;3286;49.858;8.768;2023-03-18T11:37:29;98796.22;;;23.39;26.81
6506;BME280;3286;49.858;8.768;2023-03-18T11:40:22;98790.16;;;23.83;26.92
6506;BME280;3286;49.858;8.768;2023-03-18T11:42:54;98786.34;;;23.45;26.53
6506;BME280;3286;49.858;8.768;2023-03-18T11:45:30;98783.53;;;23.91;25.98
6506;BME280;3286;49.858;8.768;2023-03-18T11:48:00;98788.19;;;23.10;27.65
6506;BME280;3286;49.858;8.768;2023-03-18T11:50:36;98795.38;;;24.07;26.49
6506;BME280;3286;49.858;8.768;2023-03-18T11:53:12;98797.28;;;21.75;29.21
6506;BME280;3286;49.858;8.768;2023-03-18T11:55:47;98787.03;;;23.23;26.52
6506;BME280;3286;49.858;8.768;2023-03-18T11:58:52;98769.25;;;23.73;26.08
6506;BME280;3286;49.858;8.768;2023-03-18T12:01:24;98778.81;;;24.43;25.97
6506;BME280;3286;49.858;8.768;2023-03-18T12:04:18;98778.94;;;23.92;26.54
6506;BME280;3286;49.858;8.768;2023-03-18T12:06:58;98778.88;;;23.18;26.40
6506;BME280;3286;49.858;8.768;2023-03-18T12:09:37;98777.31;;;21.70;28.61
6506;BME280;3286;49.858;8.768;2023-03-18T12:12:17;98779.78;;;20.56;31.16
6506;BME280;3286;49.858;8.768;2023-03-18T12:14:50;98772.09;;;22.28;27.76
6506;BME280;3286;49.858;8.768;2023-03-18T12:17:29;98780.28;;;22.75;27.36
6506;BME280;3286;49.858;8.768;2023-03-18T12:20:24;98773.28;;;23.54;26.13
6506;BME280;3286;49.858;8.768;2023-03-18T12:23:02;98761.75;;;23.24;26.45
6506;BME280;3286;49.858;8.768;2023-03-18T12:25:57;98751.88;;;23.47;27.22
6506;BME280;3286;49.858;8.768;2023-03-18T12:28:33;98754.06;;;23.67;27.39
6506;BME280;3286;49.858;8.768;2023-03-18T12:31:21;98759.06;;;23.41;27.30
6506;BME280;3286;49.858;8.768;2023-03-18T12:33:53;98745.16;;;24.06;29.45
6506;BME280;3286;49.858;8.768;2023-03-18T12:36:35;98735.38;;;24.72;28.23
6506;BME280;3286;49.858;8.768;2023-03-18T12:39:42;98738.47;;;24.81;27.35
6506;BME280;3286;49.858;8.768;2023-03-18T12:42:16;98743.06;;;23.91;25.81
6506;BME280;3286;49.858;8.768;2023-03-18T12:44:50;98738.53;;;24.14;27.83
6506;BME280;3286;49.858;8.768;2023-03-18T12:47:27;98728.63;;;23.80;27.13
6506;BME280;3286;49.858;8.768;2023-03-18T12:49:59;98729.94;;;23.78;27.02
6506;BME280;3286;49.858;8.768;2023-03-18T12:52:31;98723.44;;;23.96;27.41
6506;BME280;3286;49.858;8.768;2023-03-18T12:55:06;98720.59;;;24.52;25.85
6506;BME280;3286;49.858;8.768;2023-03-18T12:57:41;98727.56;;;24.21;26.63
6506;BME280;3286;49.858;8.768;2023-03-18T13:00:17;98723.41;;;23.73;27.21
6506;BME280;3286;49.858;8.768;2023-03-18T13:02:50;98722.28;;;24.09;26.56
6506;BME280;3286;49.858;8.768;2023-03-18T13:05:23;98722.47;;;23.85;28.17
6506;BME280;3286;49.858;8.768;2023-03-18T13:08:09;98720.69;;;23.34;27.13
6506;BME280;3286;49.858;8.768;2023-03-18T13:10:42;98714.50;;;23.34;27.82
6506;BME280;3286;49.858;8.768;2023-03-18T13:13:12;98710.66;;;23.47;27.39
6506;BME280;3286;49.858;8.768;2023-03-18T13:15:43;98716.88;;;23.69;27.09
6506;BME280;3286;49.858;8.768;2023-03-18T13:18:18;98715.28;;;23.91;28.62
6506;BME280;3286;49.858;8.768;2023-03-18T13:20:46;98720.00;;;21.94;28.53
6506;BME280;3286;49.858;8.768;2023-03-18T13:23:23;98722.09;;;22.45;30.80
6506;BME280;3286;49.858;8.768;2023-03-18T13:26:02;98722.88;;;23.20;29.53
6506;BME280;3286;49.858;8.768;2023-03-18T13:28:53;98713.41;;;23.91;27.44
6506;BME280;3286;49.858;8.768;2023-03-18T13:31:34;98717.19;;;23.34;28.34
6506;BME280;3286;49.858;8.768;2023-03-18T13:39:51;98717.19;;;22.00;29.85
6506;BME280;3286;49.858;8.768;2023-03-18T13:42:24;98717.16;;;22.41;29.26
6506;BME280;3286;49.858;8.768;2023-03-18T13:45:00;98706.72;;;23.37;28.83
6506;BME280;3286;49.858;8.768;2023-03-18T13:47:33;98712.09;;;23.37;30.07